Data for 11/07/2008

Time Sea-Level Adjusted Pressure Absolute Pressure Temperature Relative Humidity Dew Point   
(mb) (inHg) (mb) (inHg) (C) (F) (%) (C) (F)
00:05 1025 30.27 854 25.22 -1.2 29.8 87 -3.1 26.4
00:10 1025 30.27 854 25.22 -1.3 29.7 88 -3 26.6
00:15 1025 30.27 854 25.22 -1.2 29.9 89 -2.8 27
00:20 1025 30.27 854 25.22 -1.1 30 89 -2.7 27.1
00:25 1025 30.27 854 25.22 -1.2 29.8 90 -2.6 27.2
00:30 1025 30.27 854 25.22 -1.2 29.9 90 -2.6 27.4
00:35 1025 30.27 854 25.22 -1.2 29.8 91 -2.5 27.5
00:40 1025 30.27 854 25.22 -1.2 29.9 91 -2.5 27.5
00:45 1025 30.27 854 25.22 -1.2 29.8 91 -2.5 27.5
00:50 1025 30.27 854 25.22 -1.2 29.8 91 -2.5 27.5
00:55 1025 30.27 854 25.22 -1.2 29.8 92 -2.4 27.6
01:00 1025 30.27 854 25.22 -1.1 30 92 -2.3 27.9
01:05 1024 30.24 854 25.22 -0.8 30.5 91 -2.1 28.2
01:10 1024 30.24 854 25.22 -0.7 30.7 91 -2 28.5
01:15 1024 30.24 853 25.19 -0.5 31 90 -2 28.4
01:20 1024 30.24 853 25.19 -0.5 31.1 91 -1.8 28.7
01:25 1024 30.24 853 25.19 -0.6 31 91 -1.9 28.6
01:30 1024 30.24 853 25.19 -0.5 31.1 90 -1.9 28.6
01:35 1024 30.24 853 25.19 -0.5 31 91 -1.9 28.6
01:40 1024 30.24 853 25.19 -0.3 31.4 89 -1.9 28.6
01:45 1024 30.24 853 25.19 -0.1 31.9 89 -1.7 28.9
01:50 1024 30.24 853 25.19 0 32 89 -1.7 29
01:55 1024 30.24 853 25.19 -0.3 31.5 91 -1.6 29
02:00 1024 30.24 853 25.19 -0.4 31.2 91 -1.7 28.9
02:05 1024 30.24 853 25.19 -0.5 31.2 91 -1.7 28.9
02:10 1024 30.24 853 25.19 -0.5 31.2 91 -1.8 28.8
02:15 1024 30.24 853 25.19 -0.5 31.2 91 -1.7 28.9
02:20 1024 30.24 853 25.19 -0.4 31.3 91 -1.7 28.9
02:25 1024 30.24 853 25.19 -0.3 31.4 91 -1.7 29
02:30 1024 30.24 853 25.19 -0.3 31.5 90 -1.6 29
02:35 1024 30.24 853 25.19 -0.1 31.9 90 -1.5 29.4
02:40 1024 30.24 853 25.19 -0 32 90 -1.4 29.5
02:45 1023 30.21 853 25.19 0.1 32.1 90 -1.4 29.5
02:50 1023 30.21 853 25.19 0.3 32.5 90 -1.3 29.7
02:55 1023 30.21 853 25.19 0.4 32.8 89 -1.2 29.8
03:00 1023 30.21 853 25.19 0.5 33 88 -1.2 29.8
03:05 1023 30.21 853 25.19 0.7 33.2 87 -1.2 29.8
03:10 1023 30.21 852 25.16 0.7 33.3 88 -1.1 30.1
03:15 1023 30.21 852 25.16 0.7 33.3 88 -1 30.1
03:20 1023 30.21 852 25.16 0.7 33.2 88 -1 30.2
03:25 1023 30.21 852 25.16 0.7 33.2 89 -1 30.2
03:30 1023 30.21 852 25.16 0.9 33.5 88 -1 30.2
03:35 1023 30.21 852 25.16 1 33.7 87 -0.9 30.4
03:40 1023 30.21 852 25.16 1 33.8 88 -0.8 30.6
03:45 1023 30.21 852 25.16 1 33.9 87 -0.8 30.5
03:50 1023 30.21 852 25.16 1.1 33.9 87 -0.8 30.6
03:55 1023 30.21 852 25.16 1.1 33.9 86 -1.1 30.1
04:00 1023 30.21 852 25.16 1.2 34.1 85 -1 30.2
04:05 1023 30.21 852 25.16 1.2 34.1 85 -1 30.1
04:10 1023 30.21 852 25.16 1.3 34.3 87 -0.7 30.7
04:15 1023 30.21 852 25.16 1.2 34.1 87 -0.8 30.6
04:20 1023 30.21 852 25.16 1.3 34.3 86 -0.8 30.6
04:25 1023 30.21 852 25.16 1.2 34.2 88 -0.6 31
04:30 1023 30.21 852 25.16 0.6 33 90 -0.8 30.5
04:35 1023 30.21 853 25.19 0.4 32.7 91 -1 30.2
04:40 1023 30.21 853 25.19 0.4 32.7 90 -1.1 30
04:45 1023 30.21 853 25.19 0.5 32.8 89 -1.2 29.9
04:50 1023 30.21 853 25.19 0.6 33.1 88 -1.1 30
04:55 1023 30.21 852 25.16 0.7 33.2 89 -1 30.2
05:00 1023 30.21 852 25.16 0.6 33 89 -1 30.2
05:05 1023 30.21 852 25.16 0.7 33.3 88 -1 30.2
05:10 1023 30.21 852 25.16 0.9 33.5 89 -0.8 30.6
05:15 1023 30.21 852 25.16 0.8 33.4 90 -0.8 30.6
05:20 1023 30.21 852 25.16 1 33.8 84 -1.4 29.4
05:25 1023 30.21 852 25.16 1.8 35.2 77 -1.9 28.6
05:30 1023 30.21 852 25.16 2.5 36.5 74 -1.6 29.1
05:35 1023 30.21 852 25.16 2.8 37 73 -1.5 29.3
05:40 1023 30.21 852 25.16 2.4 36.3 82 -0.4 31.2
05:45 1023 30.21 852 25.16 1.8 35.3 81 -1.1 30
05:50 1023 30.21 852 25.16 1.9 35.5 82 -0.8 30.6
05:55 1023 30.21 852 25.16 1.7 35.1 81 -1.2 29.8
06:00 1023 30.21 852 25.16 2 35.6 80 -1.1 30
06:05 1023 30.21 852 25.16 2.1 35.8 80 -0.9 30.4
06:10 1023 30.21 852 25.16 2.1 35.7 79 -1.2 29.9
06:15 1023 30.21 852 25.16 2.3 36.1 77 -1.3 29.6
06:20 1023 30.21 852 25.16 2.5 36.6 76 -1.2 29.9
06:25 1023 30.21 852 25.16 2.6 36.6 78 -0.9 30.4
06:30 1023 30.21 852 25.16 2 35.5 81 -0.9 30.4
06:35 1023 30.21 852 25.16 1.9 35.4 80 -1.3 29.7
06:40 1023 30.21 852 25.16 2.1 35.7 78 -1.3 29.6
06:45 1023 30.21 852 25.16 2.1 35.8 78 -1.4 29.5
06:50 1023 30.21 852 25.16 2.3 36.2 76 -1.4 29.4
06:55 1023 30.21 852 25.16 2.4 36.2 76 -1.4 29.5
07:00 1023 30.21 852 25.16 2.5 36.6 75 -1.4 29.5
07:05 1023 30.21 852 25.16 2.6 36.6 75 -1.5 29.3
07:10 1023 30.21 852 25.16 2.6 36.7 76 -1.3 29.7
07:15 1023 30.21 852 25.16 2.4 36.2 81 -0.6 30.9
07:20 1023 30.21 852 25.16 1.7 35 81 -1.2 29.8
07:25 1023 30.21 852 25.16 1.7 35.1 82 -1.1 30
07:30 1023 30.21 852 25.16 1.9 35.4 80 -1.1 30
07:35 1023 30.21 852 25.16 2.1 35.7 82 -0.8 30.6
07:40 1023 30.21 853 25.19 2.2 36 80 -0.9 30.4
07:45 1023 30.21 853 25.19 2.2 35.9 82 -0.6 30.8
07:50 1023 30.21 853 25.19 2.2 35.9 81 -0.7 30.7
07:55 1024 30.24 853 25.19 2.2 35.9 81 -0.7 30.7
08:00 1024 30.24 853 25.19 2.2 35.9 84 -0.3 31.4
08:05 1024 30.24 853 25.19 2.2 35.9 84 -0.2 31.7
08:10 1024 30.24 853 25.19 2.1 35.9 86 -0 32
08:15 1024 30.24 853 25.19 2 35.6 85 -0.3 31.4
08:20 1024 30.24 853 25.19 1.7 35.1 85 -0.6 31
08:25 1024 30.24 853 25.19 1.7 35.1 86 -0.4 31.3
08:30 1024 30.24 853 25.19 1.9 35.3 85 -0.4 31.3
08:35 1024 30.24 853 25.19 2.2 35.9 85 -0.1 31.9
08:40 1024 30.24 853 25.19 2.5 36.5 85 0.3 32.5
08:45 1024 30.24 853 25.19 2.8 37 83 0.2 32.3
08:50 1024 30.24 853 25.19 3.1 37.7 81 0.2 32.4
08:55 1024 30.24 853 25.19 3.2 37.8 81 0.2 32.4
09:00 1024 30.24 853 25.19 3.4 38.1 80 0.2 32.4
09:05 1024 30.24 853 25.19 3.4 38.2 81 0.4 32.8
09:10 1024 30.24 853 25.19 3.6 38.4 81 0.5 32.9
09:15 1024 30.24 853 25.19 3.5 38.3 83 0.9 33.6
09:20 1024 30.24 853 25.19 3.5 38.3 80 0.5 32.8
09:25 1024 30.24 853 25.19 3.6 38.5 83 1 33.8
09:30 1024 30.24 853 25.19 3.6 38.5 82 0.8 33.4
09:35 1024 30.24 853 25.19 3.7 38.7 83 1 33.9
09:40 1024 30.24 853 25.19 3.8 38.9 82 1.1 34
09:45 1024 30.24 853 25.19 3.8 38.8 83 1.2 34.1
09:50 1024 30.24 853 25.19 3.9 39.1 83 1.3 34.3
09:55 1024 30.24 853 25.19 4 39.3 84 1.6 34.8
10:00 1024 30.24 853 25.19 4.2 39.6 84 1.7 35.1
10:05 1024 30.24 853 25.19 4.4 39.8 84 1.8 35.3
10:10 1024 30.24 853 25.19 4.4 39.8 86 2.2 36
10:15 1024 30.24 853 25.19 4.4 40 84 2 35.6
10:20 1024 30.24 853 25.19 4.5 40.2 83 1.9 35.5
10:25 1024 30.24 853 25.19 4.7 40.4 82 1.8 35.3
10:30 1024 30.24 853 25.19 4.5 40.1 84 2.1 35.7
10:35 1024 30.24 853 25.19 4.6 40.3 83 2 35.5
10:40 1024 30.24 853 25.19 4.7 40.4 81 1.7 35.1
10:45 1024 30.24 853 25.19 4.7 40.5 82 1.9 35.5
10:50 1024 30.24 853 25.19 4.9 40.8 82 2 35.6
10:55 1024 30.24 853 25.19 5 41.1 81 2.1 35.8
11:00 1024 30.24 853 25.19 5 41 80 1.8 35.2
11:05 1024 30.24 853 25.19 5.1 41.1 79 1.8 35.3
11:10 1024 30.24 853 25.19 5 41.1 80 1.8 35.3
11:15 1024 30.24 853 25.19 4.9 40.8 81 1.9 35.5
11:20 1024 30.24 853 25.19 5.1 41.2 80 1.9 35.4
11:25 1024 30.24 853 25.19 5.5 41.9 81 2.5 36.5
11:30 1024 30.24 853 25.19 5.4 41.8 81 2.4 36.3
11:35 1024 30.24 853 25.19 5.5 41.9 81 2.4 36.4
11:40 1024 30.24 853 25.19 5.5 41.9 84 3.1 37.6
11:45 1024 30.24 853 25.19 5.4 41.7 86 3.3 37.9
11:50 1024 30.24 853 25.19 5.5 41.9 84 3 37.4
11:55 1024 30.24 853 25.19 5.6 42 87 3.5 38.3
12:00 1024 30.24 853 25.19 5.7 42.3 84 3.3 37.9
12:05 1024 30.24 853 25.19 5.6 42.2 87 3.6 38.5
12:10 1023 30.21 853 25.19 5.6 42 89 3.9 38.9
12:15 1024 30.24 853 25.19 5.6 42.1 88 3.8 38.9
12:20 1023 30.21 853 25.19 5.7 42.2 83 3 37.4
12:25 1023 30.21 853 25.19 5.5 41.9 85 3.2 37.8
12:30 1023 30.21 853 25.19 5.7 42.2 85 3.4 38.1
12:35 1023 30.21 853 25.19 5.9 42.6 85 3.6 38.4
12:40 1023 30.21 853 25.19 5.9 42.6 84 3.4 38.2
12:45 1024 30.24 853 25.19 5.8 42.5 86 3.6 38.5
12:50 1023 30.21 853 25.19 5.9 42.7 87 4 39.2
12:55 1023 30.21 853 25.19 6.3 43.3 84 3.8 38.9
13:00 1023 30.21 853 25.19 6.5 43.6 83 3.9 38.9
13:05 1023 30.21 853 25.19 6.4 43.5 86 4.2 39.5
13:10 1023 30.21 853 25.19 6.4 43.5 85 4.1 39.4
13:15 1023 30.21 853 25.19 6.3 43.3 84 3.7 38.7
13:20 1023 30.21 853 25.19 6.1 43 86 3.9 39
13:25 1023 30.21 853 25.19 6.1 42.9 86 4 39.2
13:30 1023 30.21 853 25.19 6 42.9 85 3.7 38.6
13:35 1023 30.21 853 25.19 6.1 43 87 4.1 39.3
13:40 1023 30.21 853 25.19 6.3 43.3 85 4 39.1
13:45 1023 30.21 853 25.19 6.2 43.2 85 3.8 38.9
13:50 1023 30.21 853 25.19 6 42.8 84 3.5 38.3
13:55 1023 30.21 853 25.19 5.9 42.6 87 3.8 38.8
14:00 1023 30.21 852 25.16 5.9 42.6 84 3.4 38.2
14:05 1023 30.21 852 25.16 5.7 42.3 86 3.6 38.5
14:10 1023 30.21 852 25.16 5.7 42.3 87 3.7 38.6
14:15 1023 30.21 852 25.16 5.8 42.4 87 3.8 38.8
14:20 1023 30.21 852 25.16 6 42.8 85 3.7 38.7
14:25 1023 30.21 852 25.16 6.1 43 86 3.9 39.1
14:30 1023 30.21 852 25.16 6 42.8 88 4.2 39.6
14:35 1023 30.21 852 25.16 6 42.9 87 4.1 39.3
14:40 1023 30.21 852 25.16 6.2 43.1 86 4 39.2
14:45 1023 30.21 852 25.16 6.1 43 87 4.1 39.5
14:50 1023 30.21 852 25.16 6 42.9 87 4 39.3
14:55 1023 30.21 852 25.16 6 42.7 87 4 39.3
15:00 1023 30.21 852 25.16 6 42.9 88 4.1 39.4
15:05 1023 30.21 852 25.16 6 42.9 88 4.2 39.5
15:10 1023 30.21 852 25.16 5.9 42.7 88 4.2 39.5
15:15 1023 30.21 852 25.16 5.9 42.6 88 4.1 39.4
15:20 1023 30.21 852 25.16 6 42.8 87 4 39.2
15:25 1023 30.21 852 25.16 6 42.8 89 4.3 39.8
15:30 1023 30.21 852 25.16 6 42.8 88 4.2 39.5
15:35 1023 30.21 852 25.16 6 42.8 89 4.4 39.9
15:40 1023 30.21 852 25.16 6 42.8 88 4.2 39.6
15:45 1023 30.21 852 25.16 6 42.9 88 4.2 39.5
15:50 1023 30.21 852 25.16 5.9 42.6 89 4.2 39.5
15:55 1023 30.21 853 25.19 5.9 42.7 89 4.2 39.6
16:00 1023 30.21 852 25.16 5.9 42.7 87 4 39.2
16:05 1023 30.21 852 25.16 5.7 42.3 89 4.1 39.4
16:10 1023 30.21 852 25.16 5.6 42.1 89 4 39.2
16:15 1023 30.21 852 25.16 5.7 42.3 90 4.2 39.5
16:20 1023 30.21 852 25.16 5.7 42.3 90 4.2 39.5
16:25 1023 30.21 852 25.16 5.5 41.9 90 4 39.2
16:30 1023 30.21 852 25.16 5.4 41.7 91 4 39.3
16:35 1023 30.21 852 25.16 5.4 41.8 91 4.1 39.4
16:40 1023 30.21 852 25.16 5.5 41.8 90 4 39.3
16:45 1023 30.21 852 25.16 5.4 41.6 92 4.2 39.5
16:50 1023 30.21 852 25.16 5.3 41.6 92 4.1 39.4
16:55 1023 30.21 852 25.16 5.2 41.3 92 4 39.3
17:00 1023 30.21 852 25.16 5 41.1 93 4 39.2
17:05 1023 30.21 852 25.16 5 41 92 3.9 38.9
17:10 1023 30.21 852 25.16 5 41 93 3.9 39.1
17:15 1023 30.21 852 25.16 5 41 92 3.9 39
17:20 1023 30.21 852 25.16 5 41.1 92 3.8 38.9
17:25 1023 30.21 852 25.16 5.1 41.3 92 3.9 39.1
17:30 1023 30.21 852 25.16 5.1 41.1 93 4 39.1
17:35 1023 30.21 852 25.16 5.1 41.2 92 4 39.1
17:40 1023 30.21 852 25.16 5.3 41.5 91 3.9 39
17:45 1023 30.21 852 25.16 5.2 41.3 91 3.9 38.9
17:50 1023 30.21 852 25.16 5.2 41.4 91 3.9 38.9
17:55 1023 30.21 852 25.16 5.2 41.4 91 3.9 39
18:00 1023 30.21 852 25.16 5.2 41.4 91 3.8 38.9
18:05 1023 30.21 852 25.16 5.1 41.1 91 3.7 38.7
18:10 1023 30.21 852 25.16 4.9 40.9 92 3.7 38.7
18:15 1023 30.21 852 25.16 4.9 40.7 91 3.5 38.4
18:20 1023 30.21 852 25.16 5 40.9 92 3.7 38.7
18:25 1023 30.21 852 25.16 4.9 40.9 91 3.6 38.5
18:30 1023 30.21 852 25.16 4.9 40.8 92 3.7 38.6
18:35 1023 30.21 852 25.16 4.8 40.7 91 3.5 38.2
18:40 1023 30.21 852 25.16 4.8 40.7 92 3.7 38.6
18:45 1023 30.21 852 25.16 4.8 40.7 92 3.6 38.4
18:50 1023 30.21 852 25.16 4.9 40.8 90 3.4 38.2
18:55 1023 30.21 852 25.16 5 41 92 3.7 38.7
19:00 1023 30.21 852 25.16 4.8 40.6 92 3.6 38.6
19:05 1023 30.21 852 25.16 4.7 40.4 93 3.6 38.5
19:10 1023 30.21 852 25.16 4.6 40.3 93 3.6 38.6
19:15 1023 30.21 852 25.16 4.6 40.3 94 3.6 38.5
19:20 1023 30.21 852 25.16 4.6 40.2 94 3.6 38.6
19:25 1023 30.21 852 25.16 4.6 40.2 94 3.7 38.6
19:30 1023 30.21 852 25.16 4.6 40.3 94 3.7 38.6
19:35 1023 30.21 852 25.16 4.5 40.1 94 3.6 38.5
19:40 1023 30.21 852 25.16 4.4 39.9 94 3.5 38.3
19:45 1023 30.21 852 25.16 4.4 39.9 94 3.5 38.3
19:50 1023 30.21 852 25.16 4.4 40 93 3.5 38.2
19:55 1023 30.21 852 25.16 4.5 40.1 94 3.5 38.4
20:00 1023 30.21 852 25.16 4.5 40.2 93 3.5 38.3
20:05 1023 30.21 852 25.16 4.7 40.4 92 3.5 38.3
20:10 1023 30.21 852 25.16 4.8 40.6 91 3.4 38.2
20:15 1023 30.21 852 25.16 4.9 40.8 92 3.7 38.7
20:20 1023 30.21 852 25.16 4.9 40.8 93 3.8 38.8
20:25 1023 30.21 852 25.16 4.9 40.8 92 3.7 38.7
20:30 1023 30.21 852 25.16 4.9 40.9 91 3.6 38.6
20:35 1023 30.21 852 25.16 4.9 40.8 92 3.7 38.7
20:40 1023 30.21 852 25.16 4.8 40.7 92 3.7 38.7
20:45 1023 30.21 852 25.16 4.9 40.8 93 3.8 38.8
20:50 1023 30.21 852 25.16 4.9 40.8 93 3.8 38.9
20:55 1023 30.21 852 25.16 5 41 93 4 39.1
21:00 1023 30.21 852 25.16 5.1 41.1 93 4 39.3
21:05 1023 30.21 852 25.16 5 40.9 92 3.8 38.9
21:10 1023 30.21 852 25.16 4.9 40.7 93 3.9 39
21:15 1022 30.18 852 25.16 4.8 40.6 94 3.9 39
21:20 1022 30.18 852 25.16 4.7 40.4 94 3.8 38.8
21:25 1022 30.18 852 25.16 4.7 40.5 93 3.8 38.8
21:30 1022 30.18 852 25.16 4.8 40.6 93 3.8 38.8
21:35 1022 30.18 852 25.16 4.8 40.6 93 3.7 38.7
21:40 1022 30.18 852 25.16 4.9 40.8 92 3.7 38.7
21:45 1022 30.18 852 25.16 5 41.1 92 3.8 38.8
21:50 1022 30.18 852 25.16 5.2 41.3 91 3.8 38.8
21:55 1022 30.18 851 25.13 5.2 41.3 92 3.9 39
22:00 1022 30.18 851 25.13 5 41 93 3.9 39
22:05 1022 30.18 851 25.13 4.9 40.8 93 3.8 38.9
22:10 1022 30.18 851 25.13 5 41 93 3.9 39.1
22:15 1022 30.18 851 25.13 5.1 41.2 92 3.9 39
22:20 1022 30.18 851 25.13 5.1 41.2 92 3.9 39.1
22:25 1022 30.18 851 25.13 5.1 41.1 93 4 39.2
22:30 1022 30.18 851 25.13 5.1 41.1 93 4 39.2
22:35 1022 30.18 851 25.13 5.1 41.2 93 4.1 39.3
22:40 1022 30.18 851 25.13 5 41 93 4 39.2
22:45 1022 30.18 851 25.13 5.1 41.1 93 4.1 39.4
22:50 1022 30.18 851 25.13 5.1 41.2 93 4.1 39.4
22:55 1022 30.18 851 25.13 5 41 94 4.1 39.4
23:00 1022 30.18 851 25.13 4.8 40.7 95 4 39.2
23:05 1022 30.18 852 25.16 4.8 40.7 94 4 39.1
23:10 1022 30.18 851 25.13 5 40.9 94 4 39.3
23:15 1022 30.18 851 25.13 5 41 93 4 39.2
23:20 1022 30.18 851 25.13 5 41 93 4 39.2
23:25 1022 30.18 851 25.13 5.1 41.3 92 3.9 39.1
23:30 1022 30.18 851 25.13 5.2 41.3 93 4.1 39.4
23:35 1022 30.18 851 25.13 5.2 41.3 94 4.2 39.6
23:40 1022 30.18 852 25.16 5 41.1 94 4.2 39.6
23:45 1022 30.18 852 25.16 4.8 40.7 95 4.1 39.4
23:50 1022 30.18 851 25.13 4.7 40.5 96 4.1 39.4
23:55 1022 30.18 851 25.13 4.7 40.5 96 4.1 39.4
24:00 1022 30.18 851 25.13 4.7 40.4 96 4.1 39.4